sensor_id;sensor_type;location;lat;lon;timestamp;P1;durP1;ratioP1;P2;durP2;ratioP2
21810;SDS011;11067;48.788;9.208;2022-09-27T00:01:59;1.33;;;0.77;;
21810;SDS011;11067;48.788;9.208;2022-09-27T00:04:25;0.93;;;0.70;;
21810;SDS011;11067;48.788;9.208;2022-09-27T00:06:51;2.10;;;0.70;;
21810;SDS011;11067;48.788;9.208;2022-09-27T00:09:17;1.87;;;1.23;;
21810;SDS011;11067;48.788;9.208;2022-09-27T00:11:42;2.10;;;0.70;;
21810;SDS011;11067;48.788;9.208;2022-09-27T00:14:10;1.40;;;0.70;;
21810;SDS011;11067;48.788;9.208;2022-09-27T00:16:38;0.73;;;0.73;;
21810;SDS011;11067;48.788;9.208;2022-09-27T00:19:06;0.97;;;0.70;;
21810;SDS011;11067;48.788;9.208;2022-09-27T00:21:36;1.52;;;0.55;;
21810;SDS011;11067;48.788;9.208;2022-09-27T00:24:01;0.60;;;0.60;;
21810;SDS011;11067;48.788;9.208;2022-09-27T00:26:27;2.00;;;1.00;;
21810;SDS011;11067;48.788;9.208;2022-09-27T00:28:53;1.13;;;0.60;;
21810;SDS011;11067;48.788;9.208;2022-09-27T00:31:20;0.77;;;0.70;;
21810;SDS011;11067;48.788;9.208;2022-09-27T00:33:53;0.75;;;0.70;;
21810;SDS011;11067;48.788;9.208;2022-09-27T00:36:19;2.50;;;0.80;;
21810;SDS011;11067;48.788;9.208;2022-09-27T00:38:46;2.83;;;0.80;;
21810;SDS011;11067;48.788;9.208;2022-09-27T00:46:17;1.33;;;0.75;;
21810;SDS011;11067;48.788;9.208;2022-09-27T00:48:51;1.65;;;0.80;;
21810;SDS011;11067;48.788;9.208;2022-09-27T00:51:45;0.57;;;0.57;;
21810;SDS011;11067;48.788;9.208;2022-09-27T00:54:15;0.60;;;0.57;;
21810;SDS011;11067;48.788;9.208;2022-09-27T00:56:43;0.60;;;0.60;;
21810;SDS011;11067;48.788;9.208;2022-09-27T00:59:13;0.65;;;0.55;;
21810;SDS011;11067;48.788;9.208;2022-09-27T01:01:47;1.90;;;0.80;;
21810;SDS011;11067;48.788;9.208;2022-09-27T01:04:14;1.20;;;1.10;;
21810;SDS011;11067;48.788;9.208;2022-09-27T01:06:46;1.20;;;0.50;;
21810;SDS011;11067;48.788;9.208;2022-09-27T01:09:12;1.20;;;0.60;;
21810;SDS011;11067;48.788;9.208;2022-09-27T01:11:41;2.63;;;0.80;;
21810;SDS011;11067;48.788;9.208;2022-09-27T01:14:10;0.70;;;0.60;;
21810;SDS011;11067;48.788;9.208;2022-09-27T01:22:40;0.80;;;0.60;;
21810;SDS011;11067;48.788;9.208;2022-09-27T01:25:36;0.65;;;0.65;;
21810;SDS011;11067;48.788;9.208;2022-09-27T01:34:00;1.60;;;0.60;;
21810;SDS011;11067;48.788;9.208;2022-09-27T01:36:41;1.33;;;0.50;;
21810;SDS011;11067;48.788;9.208;2022-09-27T01:39:31;1.08;;;0.70;;
21810;SDS011;11067;48.788;9.208;2022-09-27T01:42:37;0.80;;;0.80;;
21810;SDS011;11067;48.788;9.208;2022-09-27T01:45:10;1.65;;;0.80;;
21810;SDS011;11067;48.788;9.208;2022-09-27T01:47:43;0.60;;;0.60;;
21810;SDS011;11067;48.788;9.208;2022-09-27T01:50:17;0.55;;;0.50;;
21810;SDS011;11067;48.788;9.208;2022-09-27T01:52:52;0.80;;;0.70;;
21810;SDS011;11067;48.788;9.208;2022-09-27T01:55:23;1.45;;;0.60;;
21810;SDS011;11067;48.788;9.208;2022-09-27T01:57:55;1.95;;;0.60;;
21810;SDS011;11067;48.788;9.208;2022-09-27T02:00:28;1.17;;;0.73;;
21810;SDS011;11067;48.788;9.208;2022-09-27T02:02:56;0.75;;;0.60;;
21810;SDS011;11067;48.788;9.208;2022-09-27T02:05:31;0.70;;;0.60;;
21810;SDS011;11067;48.788;9.208;2022-09-27T02:08:09;0.68;;;0.60;;
21810;SDS011;11067;48.788;9.208;2022-09-27T02:10:57;0.65;;;0.60;;
21810;SDS011;11067;48.788;9.208;2022-09-27T02:13:36;1.10;;;0.63;;
21810;SDS011;11067;48.788;9.208;2022-09-27T02:16:24;0.90;;;0.70;;
21810;SDS011;11067;48.788;9.208;2022-09-27T02:19:13;1.27;;;0.60;;
21810;SDS011;11067;48.788;9.208;2022-09-27T02:24:24;1.23;;;0.73;;
21810;SDS011;11067;48.788;9.208;2022-09-27T02:27:03;0.50;;;0.50;;
21810;SDS011;11067;48.788;9.208;2022-09-27T02:29:38;1.00;;;0.80;;
21810;SDS011;11067;48.788;9.208;2022-09-27T02:32:09;1.00;;;0.70;;
21810;SDS011;11067;48.788;9.208;2022-09-27T02:34:35;4.27;;;0.80;;
21810;SDS011;11067;48.788;9.208;2022-09-27T02:37:02;1.10;;;0.50;;
21810;SDS011;11067;48.788;9.208;2022-09-27T02:39:28;0.50;;;0.50;;
21810;SDS011;11067;48.788;9.208;2022-09-27T02:41:54;1.93;;;0.60;;
21810;SDS011;11067;48.788;9.208;2022-09-27T02:44:22;0.75;;;0.60;;
21810;SDS011;11067;48.788;9.208;2022-09-27T02:47:03;2.30;;;0.77;;
21810;SDS011;11067;48.788;9.208;2022-09-27T02:52:31;2.90;;;0.50;;
21810;SDS011;11067;48.788;9.208;2022-09-27T02:55:10;0.50;;;0.50;;
21810;SDS011;11067;48.788;9.208;2022-09-27T02:57:59;0.45;;;0.43;;
21810;SDS011;11067;48.788;9.208;2022-09-27T03:00:43;0.80;;;0.40;;
21810;SDS011;11067;48.788;9.208;2022-09-27T03:03:25;1.50;;;0.55;;
21810;SDS011;11067;48.788;9.208;2022-09-27T03:06:00;0.93;;;0.30;;
21810;SDS011;11067;48.788;9.208;2022-09-27T03:08:32;0.50;;;0.30;;
21810;SDS011;11067;48.788;9.208;2022-09-27T03:10:57;1.40;;;0.50;;
21810;SDS011;11067;48.788;9.208;2022-09-27T03:13:23;0.87;;;0.67;;
21810;SDS011;11067;48.788;9.208;2022-09-27T03:15:49;0.93;;;0.50;;
21810;SDS011;11067;48.788;9.208;2022-09-27T03:18:14;2.33;;;0.50;;
21810;SDS011;11067;48.788;9.208;2022-09-27T03:20:40;1.23;;;0.65;;
21810;SDS011;11067;48.788;9.208;2022-09-27T03:23:05;1.53;;;0.73;;
21810;SDS011;11067;48.788;9.208;2022-09-27T03:25:31;0.80;;;0.63;;
21810;SDS011;11067;48.788;9.208;2022-09-27T03:27:56;0.80;;;0.70;;
21810;SDS011;11067;48.788;9.208;2022-09-27T03:30:22;2.67;;;0.60;;
21810;SDS011;11067;48.788;9.208;2022-09-27T03:32:47;1.00;;;0.70;;
21810;SDS011;11067;48.788;9.208;2022-09-27T03:35:13;0.50;;;0.50;;
21810;SDS011;11067;48.788;9.208;2022-09-27T03:37:38;1.17;;;0.75;;
21810;SDS011;11067;48.788;9.208;2022-09-27T03:40:05;2.27;;;0.80;;
21810;SDS011;11067;48.788;9.208;2022-09-27T03:42:31;1.90;;;1.10;;
21810;SDS011;11067;48.788;9.208;2022-09-27T03:44:57;3.08;;;0.93;;
21810;SDS011;11067;48.788;9.208;2022-09-27T03:47:22;1.15;;;0.60;;
21810;SDS011;11067;48.788;9.208;2022-09-27T03:49:48;1.53;;;0.70;;
21810;SDS011;11067;48.788;9.208;2022-09-27T03:52:14;1.13;;;0.60;;
21810;SDS011;11067;48.788;9.208;2022-09-27T03:54:40;2.50;;;0.93;;
21810;SDS011;11067;48.788;9.208;2022-09-27T03:57:06;1.80;;;0.80;;
21810;SDS011;11067;48.788;9.208;2022-09-27T03:59:32;1.60;;;0.80;;
21810;SDS011;11067;48.788;9.208;2022-09-27T04:01:57;5.40;;;0.70;;
21810;SDS011;11067;48.788;9.208;2022-09-27T04:04:23;1.40;;;1.00;;
21810;SDS011;11067;48.788;9.208;2022-09-27T04:06:49;1.53;;;0.80;;
21810;SDS011;11067;48.788;9.208;2022-09-27T04:09:14;1.83;;;1.00;;
21810;SDS011;11067;48.788;9.208;2022-09-27T04:11:40;1.90;;;0.90;;
21810;SDS011;11067;48.788;9.208;2022-09-27T04:14:05;2.43;;;1.00;;
21810;SDS011;11067;48.788;9.208;2022-09-27T04:16:32;2.95;;;1.20;;
21810;SDS011;11067;48.788;9.208;2022-09-27T04:18:58;2.72;;;1.23;;
21810;SDS011;11067;48.788;9.208;2022-09-27T04:21:25;2.38;;;1.20;;
21810;SDS011;11067;48.788;9.208;2022-09-27T04:23:51;1.67;;;1.10;;
21810;SDS011;11067;48.788;9.208;2022-09-27T04:26:17;4.17;;;1.07;;
21810;SDS011;11067;48.788;9.208;2022-09-27T04:28:42;1.00;;;0.90;;
21810;SDS011;11067;48.788;9.208;2022-09-27T04:31:08;3.22;;;1.30;;
21810;SDS011;11067;48.788;9.208;2022-09-27T04:33:33;3.67;;;2.83;;
21810;SDS011;11067;48.788;9.208;2022-09-27T04:35:59;4.70;;;1.70;;
21810;SDS011;11067;48.788;9.208;2022-09-27T04:38:43;3.42;;;1.73;;
21810;SDS011;11067;48.788;9.208;2022-09-27T04:41:09;5.87;;;1.50;;
21810;SDS011;11067;48.788;9.208;2022-09-27T04:43:34;3.53;;;1.70;;
21810;SDS011;11067;48.788;9.208;2022-09-27T04:46:00;5.10;;;1.50;;
21810;SDS011;11067;48.788;9.208;2022-09-27T04:48:26;4.65;;;1.40;;
21810;SDS011;11067;48.788;9.208;2022-09-27T04:51:01;3.00;;;1.77;;
21810;SDS011;11067;48.788;9.208;2022-09-27T04:53:27;2.90;;;1.40;;
21810;SDS011;11067;48.788;9.208;2022-09-27T04:55:56;4.10;;;1.42;;
21810;SDS011;11067;48.788;9.208;2022-09-27T04:58:22;4.65;;;1.90;;
21810;SDS011;11067;48.788;9.208;2022-09-27T05:00:48;4.30;;;1.50;;
21810;SDS011;11067;48.788;9.208;2022-09-27T05:03:16;3.05;;;1.70;;
21810;SDS011;11067;48.788;9.208;2022-09-27T05:05:43;4.13;;;1.60;;
21810;SDS011;11067;48.788;9.208;2022-09-27T05:08:09;5.10;;;1.93;;
21810;SDS011;11067;48.788;9.208;2022-09-27T05:10:34;5.83;;;1.60;;
21810;SDS011;11067;48.788;9.208;2022-09-27T05:13:00;2.83;;;1.47;;
21810;SDS011;11067;48.788;9.208;2022-09-27T05:15:25;2.90;;;1.67;;
21810;SDS011;11067;48.788;9.208;2022-09-27T05:17:51;3.88;;;1.70;;
21810;SDS011;11067;48.788;9.208;2022-09-27T05:20:17;4.20;;;1.58;;
21810;SDS011;11067;48.788;9.208;2022-09-27T05:22:43;3.75;;;1.65;;
21810;SDS011;11067;48.788;9.208;2022-09-27T05:25:09;5.40;;;1.40;;
21810;SDS011;11067;48.788;9.208;2022-09-27T05:27:35;5.87;;;1.77;;
21810;SDS011;11067;48.788;9.208;2022-09-27T05:30:01;2.63;;;1.37;;
21810;SDS011;11067;48.788;9.208;2022-09-27T05:32:26;5.53;;;1.73;;
21810;SDS011;11067;48.788;9.208;2022-09-27T05:34:53;3.03;;;1.55;;
21810;SDS011;11067;48.788;9.208;2022-09-27T05:37:18;3.67;;;1.50;;
21810;SDS011;11067;48.788;9.208;2022-09-27T05:39:44;2.63;;;1.60;;
21810;SDS011;11067;48.788;9.208;2022-09-27T05:42:10;4.33;;;1.70;;
21810;SDS011;11067;48.788;9.208;2022-09-27T05:44:36;2.93;;;1.53;;
21810;SDS011;11067;48.788;9.208;2022-09-27T05:47:03;2.53;;;1.70;;
21810;SDS011;11067;48.788;9.208;2022-09-27T05:49:29;3.30;;;1.77;;
21810;SDS011;11067;48.788;9.208;2022-09-27T05:51:58;3.87;;;1.50;;
21810;SDS011;11067;48.788;9.208;2022-09-27T05:54:24;4.40;;;1.80;;
21810;SDS011;11067;48.788;9.208;2022-09-27T05:56:53;3.00;;;1.50;;
21810;SDS011;11067;48.788;9.208;2022-09-27T05:59:22;2.42;;;1.00;;
21810;SDS011;11067;48.788;9.208;2022-09-27T06:01:49;2.38;;;1.40;;
21810;SDS011;11067;48.788;9.208;2022-09-27T06:04:15;2.40;;;1.10;;
21810;SDS011;11067;48.788;9.208;2022-09-27T06:06:41;2.60;;;1.20;;
21810;SDS011;11067;48.788;9.208;2022-09-27T06:09:09;2.97;;;1.20;;
21810;SDS011;11067;48.788;9.208;2022-09-27T06:11:36;2.10;;;1.08;;
21810;SDS011;11067;48.788;9.208;2022-09-27T06:14:02;1.83;;;1.23;;
21810;SDS011;11067;48.788;9.208;2022-09-27T06:16:27;3.23;;;1.50;;
21810;SDS011;11067;48.788;9.208;2022-09-27T06:18:53;1.30;;;1.00;;
21810;SDS011;11067;48.788;9.208;2022-09-27T06:21:18;1.80;;;1.37;;
21810;SDS011;11067;48.788;9.208;2022-09-27T06:23:44;3.83;;;0.90;;
21810;SDS011;11067;48.788;9.208;2022-09-27T06:26:10;2.00;;;1.10;;
21810;SDS011;11067;48.788;9.208;2022-09-27T06:28:36;3.47;;;1.50;;
21810;SDS011;11067;48.788;9.208;2022-09-27T06:31:04;1.60;;;1.02;;
21810;SDS011;11067;48.788;9.208;2022-09-27T06:33:31;6.57;;;1.15;;
21810;SDS011;11067;48.788;9.208;2022-09-27T06:35:59;2.28;;;0.90;;
21810;SDS011;11067;48.788;9.208;2022-09-27T06:38:26;1.73;;;1.00;;
21810;SDS011;11067;48.788;9.208;2022-09-27T06:40:52;1.40;;;0.90;;
21810;SDS011;11067;48.788;9.208;2022-09-27T06:43:18;1.67;;;1.00;;
21810;SDS011;11067;48.788;9.208;2022-09-27T06:45:44;1.35;;;0.90;;
21810;SDS011;11067;48.788;9.208;2022-09-27T06:48:11;2.10;;;0.83;;
21810;SDS011;11067;48.788;9.208;2022-09-27T06:50:38;2.35;;;1.00;;
21810;SDS011;11067;48.788;9.208;2022-09-27T06:53:06;1.83;;;0.88;;
21810;SDS011;11067;48.788;9.208;2022-09-27T06:55:34;2.30;;;1.00;;
21810;SDS011;11067;48.788;9.208;2022-09-27T06:58:00;1.90;;;1.00;;
21810;SDS011;11067;48.788;9.208;2022-09-27T07:00:44;1.35;;;0.90;;
21810;SDS011;11067;48.788;9.208;2022-09-27T07:03:13;1.40;;;0.80;;
21810;SDS011;11067;48.788;9.208;2022-09-27T07:05:39;1.95;;;1.00;;
21810;SDS011;11067;48.788;9.208;2022-09-27T07:08:06;1.55;;;0.60;;
21810;SDS011;11067;48.788;9.208;2022-09-27T07:10:38;1.00;;;0.63;;
21810;SDS011;11067;48.788;9.208;2022-09-27T07:13:05;0.65;;;0.55;;
21810;SDS011;11067;48.788;9.208;2022-09-27T07:15:33;0.50;;;0.50;;
21810;SDS011;11067;48.788;9.208;2022-09-27T07:18:02;1.50;;;1.00;;
21810;SDS011;11067;48.788;9.208;2022-09-27T07:20:29;0.68;;;0.60;;
21810;SDS011;11067;48.788;9.208;2022-09-27T07:22:55;0.80;;;0.63;;
21810;SDS011;11067;48.788;9.208;2022-09-27T07:25:21;1.83;;;0.60;;
21810;SDS011;11067;48.788;9.208;2022-09-27T07:27:47;1.20;;;0.45;;
21810;SDS011;11067;48.788;9.208;2022-09-27T07:30:13;2.05;;;0.60;;
21810;SDS011;11067;48.788;9.208;2022-09-27T07:32:41;2.10;;;0.70;;
21810;SDS011;11067;48.788;9.208;2022-09-27T07:35:08;1.67;;;0.80;;
21810;SDS011;11067;48.788;9.208;2022-09-27T07:37:35;0.65;;;0.60;;
21810;SDS011;11067;48.788;9.208;2022-09-27T07:40:02;1.75;;;0.52;;
21810;SDS011;11067;48.788;9.208;2022-09-27T07:42:30;0.50;;;0.40;;
21810;SDS011;11067;48.788;9.208;2022-09-27T07:44:56;0.70;;;0.40;;
21810;SDS011;11067;48.788;9.208;2022-09-27T07:47:22;1.23;;;0.70;;
21810;SDS011;11067;48.788;9.208;2022-09-27T07:49:50;0.60;;;0.50;;
21810;SDS011;11067;48.788;9.208;2022-09-27T07:52:20;0.75;;;0.40;;
21810;SDS011;11067;48.788;9.208;2022-09-27T07:54:46;0.90;;;0.50;;
21810;SDS011;11067;48.788;9.208;2022-09-27T07:57:13;0.85;;;0.60;;
21810;SDS011;11067;48.788;9.208;2022-09-27T07:59:39;0.60;;;0.60;;
21810;SDS011;11067;48.788;9.208;2022-09-27T08:02:05;0.70;;;0.50;;
21810;SDS011;11067;48.788;9.208;2022-09-27T08:04:33;1.00;;;0.60;;
21810;SDS011;11067;48.788;9.208;2022-09-27T08:06:58;0.82;;;0.60;;
21810;SDS011;11067;48.788;9.208;2022-09-27T08:09:24;0.90;;;0.60;;
21810;SDS011;11067;48.788;9.208;2022-09-27T08:11:50;0.88;;;0.60;;
21810;SDS011;11067;48.788;9.208;2022-09-27T08:14:16;0.77;;;0.68;;
21810;SDS011;11067;48.788;9.208;2022-09-27T08:16:42;0.70;;;0.70;;
21810;SDS011;11067;48.788;9.208;2022-09-27T08:19:08;0.80;;;0.70;;
21810;SDS011;11067;48.788;9.208;2022-09-27T08:21:35;0.80;;;0.70;;
21810;SDS011;11067;48.788;9.208;2022-09-27T08:24:00;0.95;;;0.82;;
21810;SDS011;11067;48.788;9.208;2022-09-27T08:26:27;0.57;;;0.57;;
21810;SDS011;11067;48.788;9.208;2022-09-27T08:28:53;1.30;;;0.82;;
21810;SDS011;11067;48.788;9.208;2022-09-27T08:31:19;2.53;;;0.90;;
21810;SDS011;11067;48.788;9.208;2022-09-27T08:33:48;0.93;;;0.80;;
21810;SDS011;11067;48.788;9.208;2022-09-27T08:36:15;0.82;;;0.60;;
21810;SDS011;11067;48.788;9.208;2022-09-27T08:38:41;0.50;;;0.50;;
21810;SDS011;11067;48.788;9.208;2022-09-27T08:41:08;0.40;;;0.40;;
21810;SDS011;11067;48.788;9.208;2022-09-27T08:46:41;0.85;;;0.60;;
21810;SDS011;11067;48.788;9.208;2022-09-27T08:49:20;1.05;;;0.90;;
21810;SDS011;11067;48.788;9.208;2022-09-27T08:51:50;1.70;;;1.02;;
21810;SDS011;11067;48.788;9.208;2022-09-27T08:54:24;1.88;;;0.77;;
21810;SDS011;11067;48.788;9.208;2022-09-27T08:57:02;1.30;;;0.80;;
21810;SDS011;11067;48.788;9.208;2022-09-27T08:59:34;1.97;;;0.70;;
21810;SDS011;11067;48.788;9.208;2022-09-27T09:02:08;3.15;;;0.70;;
21810;SDS011;11067;48.788;9.208;2022-09-27T09:04:41;2.03;;;0.80;;
21810;SDS011;11067;48.788;9.208;2022-09-27T09:07:24;1.40;;;0.90;;
21810;SDS011;11067;48.788;9.208;2022-09-27T09:10:17;1.60;;;0.90;;
21810;SDS011;11067;48.788;9.208;2022-09-27T09:13:29;0.63;;;0.50;;
21810;SDS011;11067;48.788;9.208;2022-09-27T09:21:59;2.30;;;0.80;;
21810;SDS011;11067;48.788;9.208;2022-09-27T09:24:52;1.03;;;0.70;;
21810;SDS011;11067;48.788;9.208;2022-09-27T09:31:11;1.00;;;0.80;;
21810;SDS011;11067;48.788;9.208;2022-09-27T09:33:46;1.00;;;0.60;;
21810;SDS011;11067;48.788;9.208;2022-09-27T09:39:03;0.60;;;0.60;;
21810;SDS011;11067;48.788;9.208;2022-09-27T09:44:32;1.08;;;0.80;;
21810;SDS011;11067;48.788;9.208;2022-09-27T09:47:31;2.33;;;1.00;;
21810;SDS011;11067;48.788;9.208;2022-09-27T09:50:01;1.08;;;0.85;;
21810;SDS011;11067;48.788;9.208;2022-09-27T09:52:37;1.37;;;1.00;;
21810;SDS011;11067;48.788;9.208;2022-09-27T09:55:08;2.42;;;1.02;;
21810;SDS011;11067;48.788;9.208;2022-09-27T09:57:52;3.88;;;1.20;;
21810;SDS011;11067;48.788;9.208;2022-09-27T10:00:23;1.10;;;0.80;;
21810;SDS011;11067;48.788;9.208;2022-09-27T10:02:48;2.72;;;1.33;;
21810;SDS011;11067;48.788;9.208;2022-09-27T10:05:18;1.87;;;1.10;;
21810;SDS011;11067;48.788;9.208;2022-09-27T10:07:46;3.70;;;1.20;;
21810;SDS011;11067;48.788;9.208;2022-09-27T10:10:15;2.67;;;1.10;;
21810;SDS011;11067;48.788;9.208;2022-09-27T10:12:42;2.65;;;1.20;;
21810;SDS011;11067;48.788;9.208;2022-09-27T10:15:11;1.27;;;1.17;;
21810;SDS011;11067;48.788;9.208;2022-09-27T10:17:44;2.15;;;0.88;;
21810;SDS011;11067;48.788;9.208;2022-09-27T10:20:18;1.10;;;0.90;;
21810;SDS011;11067;48.788;9.208;2022-09-27T10:22:50;1.70;;;1.20;;
21810;SDS011;11067;48.788;9.208;2022-09-27T10:25:20;3.92;;;1.30;;
21810;SDS011;11067;48.788;9.208;2022-09-27T10:27:49;1.73;;;0.85;;
21810;SDS011;11067;48.788;9.208;2022-09-27T10:30:22;2.10;;;1.15;;
21810;SDS011;11067;48.788;9.208;2022-09-27T10:32:58;2.58;;;1.25;;
21810;SDS011;11067;48.788;9.208;2022-09-27T10:35:33;2.63;;;1.30;;
21810;SDS011;11067;48.788;9.208;2022-09-27T10:38:11;1.43;;;0.90;;
21810;SDS011;11067;48.788;9.208;2022-09-27T10:40:37;3.23;;;1.00;;
21810;SDS011;11067;48.788;9.208;2022-09-27T10:43:03;2.50;;;1.20;;
21810;SDS011;11067;48.788;9.208;2022-09-27T10:45:57;1.60;;;0.90;;
21810;SDS011;11067;48.788;9.208;2022-09-27T10:48:24;2.70;;;1.45;;
21810;SDS011;11067;48.788;9.208;2022-09-27T10:51:00;2.87;;;1.03;;
21810;SDS011;11067;48.788;9.208;2022-09-27T10:53:28;4.93;;;1.50;;
21810;SDS011;11067;48.788;9.208;2022-09-27T10:55:55;1.23;;;0.90;;
21810;SDS011;11067;48.788;9.208;2022-09-27T10:58:31;3.53;;;1.00;;
21810;SDS011;11067;48.788;9.208;2022-09-27T11:01:00;2.00;;;1.23;;
21810;SDS011;11067;48.788;9.208;2022-09-27T11:03:28;2.20;;;1.10;;
21810;SDS011;11067;48.788;9.208;2022-09-27T11:05:56;3.57;;;1.47;;
21810;SDS011;11067;48.788;9.208;2022-09-27T11:08:27;1.80;;;1.10;;
21810;SDS011;11067;48.788;9.208;2022-09-27T11:13:28;2.53;;;0.98;;
21810;SDS011;11067;48.788;9.208;2022-09-27T11:30:14;4.45;;;1.15;;
21810;SDS011;11067;48.788;9.208;2022-09-27T11:38:57;1.38;;;0.82;;
21810;SDS011;11067;48.788;9.208;2022-09-27T11:49:00;3.42;;;0.70;;
21810;SDS011;11067;48.788;9.208;2022-09-27T11:51:52;0.85;;;0.70;;
21810;SDS011;11067;48.788;9.208;2022-09-27T11:55:14;1.87;;;0.67;;
21810;SDS011;11067;48.788;9.208;2022-09-27T11:57:59;0.60;;;0.60;;
21810;SDS011;11067;48.788;9.208;2022-09-27T12:00:39;0.80;;;0.70;;
21810;SDS011;11067;48.788;9.208;2022-09-27T12:06:12;1.57;;;0.80;;
21810;SDS011;11067;48.788;9.208;2022-09-27T12:09:00;0.80;;;0.50;;
21810;SDS011;11067;48.788;9.208;2022-09-27T12:11:42;0.40;;;0.40;;
21810;SDS011;11067;48.788;9.208;2022-09-27T12:17:05;0.88;;;0.35;;
21810;SDS011;11067;48.788;9.208;2022-09-27T12:19:53;1.33;;;0.50;;
21810;SDS011;11067;48.788;9.208;2022-09-27T12:22:23;2.72;;;0.45;;
21810;SDS011;11067;48.788;9.208;2022-09-27T12:24:54;0.60;;;0.33;;
21810;SDS011;11067;48.788;9.208;2022-09-27T12:27:24;0.70;;;0.50;;
21810;SDS011;11067;48.788;9.208;2022-09-27T12:30:00;2.00;;;0.30;;
21810;SDS011;11067;48.788;9.208;2022-09-27T12:37:48;0.70;;;0.47;;
21810;SDS011;11067;48.788;9.208;2022-09-27T12:40:25;0.30;;;0.30;;
21810;SDS011;11067;48.788;9.208;2022-09-27T12:43:08;0.95;;;0.63;;
21810;SDS011;11067;48.788;9.208;2022-09-27T12:51:12;1.27;;;1.17;;
21810;SDS011;11067;48.788;9.208;2022-09-27T12:59:03;1.70;;;0.50;;
21810;SDS011;11067;48.788;9.208;2022-09-27T13:04:32;1.23;;;0.65;;
21810;SDS011;11067;48.788;9.208;2022-09-27T13:10:04;0.73;;;0.40;;
21810;SDS011;11067;48.788;9.208;2022-09-27T13:12:38;1.30;;;0.77;;
21810;SDS011;11067;48.788;9.208;2022-09-27T13:15:15;1.30;;;0.70;;
21810;SDS011;11067;48.788;9.208;2022-09-27T13:22:55;1.50;;;0.70;;
21810;SDS011;11067;48.788;9.208;2022-09-27T13:30:53;0.80;;;0.65;;
21810;SDS011;11067;48.788;9.208;2022-09-27T13:33:20;0.77;;;0.65;;
21810;SDS011;11067;48.788;9.208;2022-09-27T13:36:05;1.52;;;0.77;;
21810;SDS011;11067;48.788;9.208;2022-09-27T13:46:57;1.53;;;0.90;;
21810;SDS011;11067;48.788;9.208;2022-09-27T13:49:30;1.23;;;0.73;;
21810;SDS011;11067;48.788;9.208;2022-09-27T13:52:13;3.00;;;0.80;;
21810;SDS011;11067;48.788;9.208;2022-09-27T13:58:11;1.38;;;0.90;;
21810;SDS011;11067;48.788;9.208;2022-09-27T14:00:49;2.25;;;0.80;;
21810;SDS011;11067;48.788;9.208;2022-09-27T14:03:31;3.00;;;1.00;;
21810;SDS011;11067;48.788;9.208;2022-09-27T14:06:02;1.45;;;0.90;;
21810;SDS011;11067;48.788;9.208;2022-09-27T14:08:31;2.03;;;0.80;;
21810;SDS011;11067;48.788;9.208;2022-09-27T14:11:10;2.03;;;0.95;;
21810;SDS011;11067;48.788;9.208;2022-09-27T14:13:37;2.03;;;0.90;;
21810;SDS011;11067;48.788;9.208;2022-09-27T14:16:04;1.42;;;0.90;;
21810;SDS011;11067;48.788;9.208;2022-09-27T14:18:31;4.95;;;1.25;;
21810;SDS011;11067;48.788;9.208;2022-09-27T14:21:08;1.57;;;0.93;;
21810;SDS011;11067;48.788;9.208;2022-09-27T14:23:41;2.53;;;1.10;;
21810;SDS011;11067;48.788;9.208;2022-09-27T14:26:26;1.37;;;1.07;;
21810;SDS011;11067;48.788;9.208;2022-09-27T14:28:52;4.93;;;1.38;;
21810;SDS011;11067;48.788;9.208;2022-09-27T14:33:46;4.10;;;2.63;;
21810;SDS011;11067;48.788;9.208;2022-09-27T14:36:30;1.43;;;1.10;;
21810;SDS011;11067;48.788;9.208;2022-09-27T14:39:27;2.28;;;0.90;;
21810;SDS011;11067;48.788;9.208;2022-09-27T14:41:56;1.63;;;1.20;;
21810;SDS011;11067;48.788;9.208;2022-09-27T14:44:23;1.60;;;1.10;;
21810;SDS011;11067;48.788;9.208;2022-09-27T14:47:09;2.10;;;1.10;;
21810;SDS011;11067;48.788;9.208;2022-09-27T14:50:11;2.55;;;1.58;;
21810;SDS011;11067;48.788;9.208;2022-09-27T14:52:40;1.88;;;1.13;;
21810;SDS011;11067;48.788;9.208;2022-09-27T14:55:24;2.95;;;1.35;;
21810;SDS011;11067;48.788;9.208;2022-09-27T14:57:56;2.60;;;1.20;;
21810;SDS011;11067;48.788;9.208;2022-09-27T15:00:28;1.50;;;1.00;;
21810;SDS011;11067;48.788;9.208;2022-09-27T15:02:57;1.70;;;1.25;;
21810;SDS011;11067;48.788;9.208;2022-09-27T15:05:28;1.02;;;0.80;;
21810;SDS011;11067;48.788;9.208;2022-09-27T15:07:56;2.20;;;1.00;;
21810;SDS011;11067;48.788;9.208;2022-09-27T15:10:27;0.87;;;0.83;;
21810;SDS011;11067;48.788;9.208;2022-09-27T15:12:57;1.73;;;1.35;;
21810;SDS011;11067;48.788;9.208;2022-09-27T15:15:29;2.78;;;1.17;;
21810;SDS011;11067;48.788;9.208;2022-09-27T15:17:57;1.40;;;1.20;;
21810;SDS011;11067;48.788;9.208;2022-09-27T15:20:27;2.20;;;1.20;;
21810;SDS011;11067;48.788;9.208;2022-09-27T15:22:58;3.00;;;1.60;;
21810;SDS011;11067;48.788;9.208;2022-09-27T15:25:35;1.58;;;1.20;;
21810;SDS011;11067;48.788;9.208;2022-09-27T15:28:15;2.03;;;1.10;;
21810;SDS011;11067;48.788;9.208;2022-09-27T15:30:53;2.95;;;1.40;;
21810;SDS011;11067;48.788;9.208;2022-09-27T15:33:21;1.23;;;1.00;;
21810;SDS011;11067;48.788;9.208;2022-09-27T15:35:55;4.20;;;1.83;;
21810;SDS011;11067;48.788;9.208;2022-09-27T15:38:26;2.30;;;1.52;;
21810;SDS011;11067;48.788;9.208;2022-09-27T15:41:01;1.83;;;1.10;;
21810;SDS011;11067;48.788;9.208;2022-09-27T15:43:32;1.80;;;1.13;;
21810;SDS011;11067;48.788;9.208;2022-09-27T15:46:02;1.58;;;1.00;;
21810;SDS011;11067;48.788;9.208;2022-09-27T15:48:31;2.00;;;0.88;;
21810;SDS011;11067;48.788;9.208;2022-09-27T15:50:59;1.02;;;0.90;;
21810;SDS011;11067;48.788;9.208;2022-09-27T15:56:01;1.60;;;0.90;;
21810;SDS011;11067;48.788;9.208;2022-09-27T15:58:30;1.17;;;0.80;;
21810;SDS011;11067;48.788;9.208;2022-09-27T16:00:57;0.95;;;0.88;;
21810;SDS011;11067;48.788;9.208;2022-09-27T16:03:26;1.75;;;1.05;;
21810;SDS011;11067;48.788;9.208;2022-09-27T16:05:52;2.65;;;0.90;;
21810;SDS011;11067;48.788;9.208;2022-09-27T16:08:20;2.47;;;0.95;;
21810;SDS011;11067;48.788;9.208;2022-09-27T16:10:47;1.60;;;0.90;;
21810;SDS011;11067;48.788;9.208;2022-09-27T16:13:15;0.80;;;0.80;;
21810;SDS011;11067;48.788;9.208;2022-09-27T16:15:41;2.33;;;0.90;;
21810;SDS011;11067;48.788;9.208;2022-09-27T16:18:07;1.20;;;0.80;;
21810;SDS011;11067;48.788;9.208;2022-09-27T16:20:33;1.85;;;0.80;;
21810;SDS011;11067;48.788;9.208;2022-09-27T16:22:58;2.00;;;1.00;;
21810;SDS011;11067;48.788;9.208;2022-09-27T16:25:24;2.33;;;0.90;;
21810;SDS011;11067;48.788;9.208;2022-09-27T16:27:50;2.80;;;1.17;;
21810;SDS011;11067;48.788;9.208;2022-09-27T16:30:16;0.98;;;0.70;;
21810;SDS011;11067;48.788;9.208;2022-09-27T16:32:45;3.10;;;2.10;;
21810;SDS011;11067;48.788;9.208;2022-09-27T16:35:12;1.90;;;1.00;;
21810;SDS011;11067;48.788;9.208;2022-09-27T16:37:38;2.23;;;1.07;;
21810;SDS011;11067;48.788;9.208;2022-09-27T16:40:04;1.77;;;1.00;;
21810;SDS011;11067;48.788;9.208;2022-09-27T16:42:32;2.70;;;1.00;;
21810;SDS011;11067;48.788;9.208;2022-09-27T16:44:58;1.37;;;0.77;;
21810;SDS011;11067;48.788;9.208;2022-09-27T16:47:25;1.88;;;0.82;;
21810;SDS011;11067;48.788;9.208;2022-09-27T16:49:51;1.83;;;0.90;;
21810;SDS011;11067;48.788;9.208;2022-09-27T16:52:35;2.20;;;1.42;;
21810;SDS011;11067;48.788;9.208;2022-09-27T16:55:01;2.57;;;1.20;;
21810;SDS011;11067;48.788;9.208;2022-09-27T16:57:26;1.38;;;0.90;;
21810;SDS011;11067;48.788;9.208;2022-09-27T16:59:52;2.45;;;1.20;;
21810;SDS011;11067;48.788;9.208;2022-09-27T17:02:21;2.53;;;1.27;;
21810;SDS011;11067;48.788;9.208;2022-09-27T17:04:48;1.40;;;1.10;;
21810;SDS011;11067;48.788;9.208;2022-09-27T17:07:14;3.25;;;1.60;;
21810;SDS011;11067;48.788;9.208;2022-09-27T17:09:39;3.10;;;1.40;;
21810;SDS011;11067;48.788;9.208;2022-09-27T17:12:05;1.83;;;1.13;;
21810;SDS011;11067;48.788;9.208;2022-09-27T17:14:31;2.57;;;1.30;;
21810;SDS011;11067;48.788;9.208;2022-09-27T17:16:56;3.40;;;1.25;;